sensor_id;sensor_type;location;lat;lon;timestamp;P1;durP1;ratioP1;P2;durP2;ratioP2
6424;SDS011;12193;42.642;23.384;2023-04-06T00:01:20;11.17;;;6.63;;
6424;SDS011;12193;42.642;23.384;2023-04-06T00:03:52;15.73;;;7.50;;
6424;SDS011;12193;42.642;23.384;2023-04-06T00:06:22;11.57;;;6.73;;
6424;SDS011;12193;42.642;23.384;2023-04-06T03:08:33;10.53;;;6.80;;
6424;SDS011;12193;42.642;23.384;2023-04-06T03:11:03;11.23;;;6.77;;
6424;SDS011;12193;42.642;23.384;2023-04-06T03:13:33;9.30;;;6.33;;
6424;SDS011;12193;42.642;23.384;2023-04-06T03:16:04;11.23;;;6.60;;
6424;SDS011;12193;42.642;23.384;2023-04-06T03:18:34;10.53;;;6.60;;
6424;SDS011;12193;42.642;23.384;2023-04-06T03:21:03;11.67;;;6.37;;
6424;SDS011;12193;42.642;23.384;2023-04-06T03:23:36;9.83;;;6.37;;
6424;SDS011;12193;42.642;23.384;2023-04-06T03:26:05;12.33;;;6.60;;
6424;SDS011;12193;42.642;23.384;2023-04-06T03:28:36;11.90;;;6.47;;
6424;SDS011;12193;42.642;23.384;2023-04-06T03:31:05;11.90;;;6.93;;
6424;SDS011;12193;42.642;23.384;2023-04-06T03:33:35;10.90;;;6.50;;
6424;SDS011;12193;42.642;23.384;2023-04-06T03:36:05;15.73;;;6.83;;
6424;SDS011;12193;42.642;23.384;2023-04-06T03:38:38;12.27;;;6.67;;
6424;SDS011;12193;42.642;23.384;2023-04-06T03:41:07;10.33;;;5.80;;
6424;SDS011;12193;42.642;23.384;2023-04-06T03:43:37;9.97;;;6.07;;
6424;SDS011;12193;42.642;23.384;2023-04-06T03:46:07;10.63;;;6.50;;
6424;SDS011;12193;42.642;23.384;2023-04-06T03:48:36;9.90;;;6.27;;
6424;SDS011;12193;42.642;23.384;2023-04-06T03:51:05;11.03;;;6.40;;
6424;SDS011;12193;42.642;23.384;2023-04-06T03:53:35;11.57;;;6.73;;
6424;SDS011;12193;42.642;23.384;2023-04-06T03:56:07;10.37;;;6.50;;
6424;SDS011;12193;42.642;23.384;2023-04-06T03:58:37;10.00;;;5.73;;
6424;SDS011;12193;42.642;23.384;2023-04-06T04:01:06;10.27;;;5.90;;
6424;SDS011;12193;42.642;23.384;2023-04-06T04:03:36;11.50;;;6.50;;
6424;SDS011;12193;42.642;23.384;2023-04-06T04:06:05;11.57;;;6.97;;
6424;SDS011;12193;42.642;23.384;2023-04-06T04:08:34;9.50;;;5.83;;
6424;SDS011;12193;42.642;23.384;2023-04-06T04:11:07;10.80;;;6.17;;
6424;SDS011;12193;42.642;23.384;2023-04-06T04:13:36;13.30;;;6.10;;
6424;SDS011;12193;42.642;23.384;2023-04-06T04:16:05;9.23;;;6.03;;
6424;SDS011;12193;42.642;23.384;2023-04-06T04:18:35;9.07;;;5.57;;
6424;SDS011;12193;42.642;23.384;2023-04-06T04:21:05;11.30;;;6.03;;
6424;SDS011;12193;42.642;23.384;2023-04-06T04:23:34;9.93;;;6.10;;
6424;SDS011;12193;42.642;23.384;2023-04-06T04:26:06;11.20;;;6.17;;
6424;SDS011;12193;42.642;23.384;2023-04-06T04:28:36;11.80;;;6.00;;
6424;SDS011;12193;42.642;23.384;2023-04-06T04:31:06;11.80;;;6.27;;
6424;SDS011;12193;42.642;23.384;2023-04-06T04:33:35;11.30;;;6.07;;
6424;SDS011;12193;42.642;23.384;2023-04-06T04:36:05;9.53;;;5.83;;
6424;SDS011;12193;42.642;23.384;2023-04-06T04:38:35;10.27;;;6.00;;
6424;SDS011;12193;42.642;23.384;2023-04-06T04:41:07;8.63;;;5.70;;
6424;SDS011;12193;42.642;23.384;2023-04-06T04:43:37;9.83;;;5.83;;
6424;SDS011;12193;42.642;23.384;2023-04-06T04:46:06;11.17;;;5.60;;
6424;SDS011;12193;42.642;23.384;2023-04-06T04:48:36;10.27;;;6.17;;
6424;SDS011;12193;42.642;23.384;2023-04-06T04:51:06;11.43;;;5.93;;
6424;SDS011;12193;42.642;23.384;2023-04-06T04:53:36;12.53;;;6.47;;
6424;SDS011;12193;42.642;23.384;2023-04-06T04:56:08;12.13;;;6.43;;
6424;SDS011;12193;42.642;23.384;2023-04-06T04:58:38;10.93;;;6.63;;
6424;SDS011;12193;42.642;23.384;2023-04-06T05:01:07;11.87;;;6.93;;
6424;SDS011;12193;42.642;23.384;2023-04-06T05:03:37;11.33;;;6.53;;
6424;SDS011;12193;42.642;23.384;2023-04-06T05:06:07;14.00;;;5.97;;
6424;SDS011;12193;42.642;23.384;2023-04-06T05:08:37;12.33;;;6.67;;
6424;SDS011;12193;42.642;23.384;2023-04-06T05:11:09;10.07;;;6.37;;
6424;SDS011;12193;42.642;23.384;2023-04-06T05:13:39;11.90;;;6.80;;
6424;SDS011;12193;42.642;23.384;2023-04-06T05:16:08;12.97;;;7.17;;
6424;SDS011;12193;42.642;23.384;2023-04-06T05:18:37;10.80;;;6.40;;
6424;SDS011;12193;42.642;23.384;2023-04-06T05:21:07;11.60;;;6.80;;
6424;SDS011;12193;42.642;23.384;2023-04-06T05:23:36;11.83;;;6.90;;
6424;SDS011;12193;42.642;23.384;2023-04-06T05:26:06;19.93;;;6.97;;
6424;SDS011;12193;42.642;23.384;2023-04-06T05:28:38;11.60;;;7.23;;
6424;SDS011;12193;42.642;23.384;2023-04-06T05:31:08;12.50;;;7.63;;
6424;SDS011;12193;42.642;23.384;2023-04-06T05:33:37;14.63;;;7.40;;
6424;SDS011;12193;42.642;23.384;2023-04-06T05:36:07;12.23;;;7.23;;
6424;SDS011;12193;42.642;23.384;2023-04-06T05:38:37;12.73;;;7.47;;
6424;SDS011;12193;42.642;23.384;2023-04-06T05:41:09;13.03;;;7.03;;
6424;SDS011;12193;42.642;23.384;2023-04-06T05:43:39;12.70;;;7.33;;
6424;SDS011;12193;42.642;23.384;2023-04-06T05:46:08;13.47;;;7.60;;
6424;SDS011;12193;42.642;23.384;2023-04-06T05:48:38;14.23;;;7.40;;
6424;SDS011;12193;42.642;23.384;2023-04-06T05:51:07;14.03;;;8.23;;
6424;SDS011;12193;42.642;23.384;2023-04-06T05:53:37;12.70;;;7.77;;
6424;SDS011;12193;42.642;23.384;2023-04-06T05:56:10;18.87;;;8.10;;
6424;SDS011;12193;42.642;23.384;2023-04-06T05:58:39;13.63;;;7.90;;
6424;SDS011;12193;42.642;23.384;2023-04-06T06:01:09;16.67;;;8.50;;
6424;SDS011;12193;42.642;23.384;2023-04-06T06:03:38;16.37;;;8.00;;
6424;SDS011;12193;42.642;23.384;2023-04-06T06:06:08;12.93;;;7.47;;
6424;SDS011;12193;42.642;23.384;2023-04-06T06:08:37;13.37;;;7.90;;
6424;SDS011;12193;42.642;23.384;2023-04-06T06:11:07;13.57;;;8.30;;
6424;SDS011;12193;42.642;23.384;2023-04-06T06:13:39;17.93;;;9.37;;
6424;SDS011;12193;42.642;23.384;2023-04-06T06:16:08;17.03;;;9.23;;
6424;SDS011;12193;42.642;23.384;2023-04-06T06:18:38;15.40;;;8.33;;
6424;SDS011;12193;42.642;23.384;2023-04-06T06:21:07;14.07;;;7.93;;
6424;SDS011;12193;42.642;23.384;2023-04-06T06:23:38;14.90;;;8.40;;
6424;SDS011;12193;42.642;23.384;2023-04-06T06:26:10;18.13;;;8.77;;
6424;SDS011;12193;42.642;23.384;2023-04-06T06:28:39;18.07;;;9.57;;
6424;SDS011;12193;42.642;23.384;2023-04-06T06:31:09;15.20;;;8.17;;
6424;SDS011;12193;42.642;23.384;2023-04-06T06:33:39;13.43;;;8.50;;
6424;SDS011;12193;42.642;23.384;2023-04-06T06:36:08;15.23;;;8.57;;
6424;SDS011;12193;42.642;23.384;2023-04-06T06:38:38;17.47;;;9.20;;
6424;SDS011;12193;42.642;23.384;2023-04-06T06:41:10;17.20;;;9.93;;
6424;SDS011;12193;42.642;23.384;2023-04-06T06:43:40;18.27;;;9.47;;
6424;SDS011;12193;42.642;23.384;2023-04-06T06:46:09;21.53;;;10.30;;
6424;SDS011;12193;42.642;23.384;2023-04-06T06:48:38;14.33;;;8.50;;
6424;SDS011;12193;42.642;23.384;2023-04-06T06:51:08;16.93;;;8.87;;
6424;SDS011;12193;42.642;23.384;2023-04-06T06:53:37;18.43;;;9.27;;
6424;SDS011;12193;42.642;23.384;2023-04-06T06:56:10;16.33;;;7.77;;
6424;SDS011;12193;42.642;23.384;2023-04-06T06:58:39;16.20;;;8.07;;
6424;SDS011;12193;42.642;23.384;2023-04-06T07:01:09;19.27;;;9.03;;
6424;SDS011;12193;42.642;23.384;2023-04-06T07:03:38;17.70;;;10.17;;
6424;SDS011;12193;42.642;23.384;2023-04-06T07:06:08;15.07;;;8.27;;
6424;SDS011;12193;42.642;23.384;2023-04-06T07:08:37;14.77;;;8.67;;
6424;SDS011;12193;42.642;23.384;2023-04-06T07:11:07;17.30;;;9.17;;
6424;SDS011;12193;42.642;23.384;2023-04-06T07:13:39;15.87;;;9.27;;
6424;SDS011;12193;42.642;23.384;2023-04-06T07:16:09;13.17;;;8.30;;
6424;SDS011;12193;42.642;23.384;2023-04-06T07:18:38;14.10;;;7.80;;
6424;SDS011;12193;42.642;23.384;2023-04-06T07:21:07;13.03;;;8.10;;
6424;SDS011;12193;42.642;23.384;2023-04-06T07:23:37;13.73;;;8.30;;
6424;SDS011;12193;42.642;23.384;2023-04-06T07:26:06;16.00;;;8.20;;
6424;SDS011;12193;42.642;23.384;2023-04-06T07:28:38;15.20;;;8.83;;
6424;SDS011;12193;42.642;23.384;2023-04-06T07:31:08;12.87;;;7.97;;
6424;SDS011;12193;42.642;23.384;2023-04-06T07:33:38;12.97;;;7.70;;
6424;SDS011;12193;42.642;23.384;2023-04-06T07:36:07;11.83;;;7.37;;
6424;SDS011;12193;42.642;23.384;2023-04-06T07:38:36;10.07;;;7.30;;
6424;SDS011;12193;42.642;23.384;2023-04-06T07:41:08;14.73;;;8.30;;
6424;SDS011;12193;42.642;23.384;2023-04-06T07:43:40;11.53;;;7.70;;
6424;SDS011;12193;42.642;23.384;2023-04-06T07:46:09;13.17;;;7.70;;
6424;SDS011;12193;42.642;23.384;2023-04-06T07:48:39;11.60;;;7.10;;
6424;SDS011;12193;42.642;23.384;2023-04-06T07:51:08;10.77;;;7.03;;
6424;SDS011;12193;42.642;23.384;2023-04-06T07:53:39;11.63;;;7.43;;
6424;SDS011;12193;42.642;23.384;2023-04-06T07:56:09;12.47;;;7.33;;
6424;SDS011;12193;42.642;23.384;2023-04-06T07:58:42;14.00;;;7.80;;
6424;SDS011;12193;42.642;23.384;2023-04-06T08:01:11;12.93;;;8.50;;
6424;SDS011;12193;42.642;23.384;2023-04-06T08:03:41;14.00;;;9.10;;
6424;SDS011;12193;42.642;23.384;2023-04-06T08:06:10;14.27;;;8.30;;
6424;SDS011;12193;42.642;23.384;2023-04-06T08:08:40;14.07;;;8.47;;
6424;SDS011;12193;42.642;23.384;2023-04-06T08:11:10;15.67;;;8.77;;
6424;SDS011;12193;42.642;23.384;2023-04-06T08:13:41;11.73;;;8.10;;
6424;SDS011;12193;42.642;23.384;2023-04-06T08:16:11;15.77;;;8.67;;
6424;SDS011;12193;42.642;23.384;2023-04-06T08:18:41;16.10;;;8.80;;
6424;SDS011;12193;42.642;23.384;2023-04-06T08:21:10;13.30;;;8.13;;
6424;SDS011;12193;42.642;23.384;2023-04-06T08:23:39;11.83;;;7.70;;
6424;SDS011;12193;42.642;23.384;2023-04-06T08:26:09;11.63;;;8.10;;
6424;SDS011;12193;42.642;23.384;2023-04-06T08:28:38;13.77;;;8.43;;
6424;SDS011;12193;42.642;23.384;2023-04-06T08:31:10;16.87;;;8.20;;
6424;SDS011;12193;42.642;23.384;2023-04-06T08:33:40;11.53;;;7.33;;
6424;SDS011;12193;42.642;23.384;2023-04-06T08:36:10;11.87;;;7.37;;
6424;SDS011;12193;42.642;23.384;2023-04-06T08:38:40;10.93;;;7.40;;
6424;SDS011;12193;42.642;23.384;2023-04-06T08:41:10;11.83;;;7.67;;
6424;SDS011;12193;42.642;23.384;2023-04-06T08:43:42;9.90;;;6.90;;
6424;SDS011;12193;42.642;23.384;2023-04-06T08:46:15;13.27;;;7.97;;
6424;SDS011;12193;42.642;23.384;2023-04-06T08:48:46;12.60;;;7.37;;
6424;SDS011;12193;42.642;23.384;2023-04-06T08:51:17;10.97;;;6.40;;
6424;SDS011;12193;42.642;23.384;2023-04-06T08:53:47;12.47;;;6.90;;
6424;SDS011;12193;42.642;23.384;2023-04-06T08:56:20;12.00;;;7.20;;
6424;SDS011;12193;42.642;23.384;2023-04-06T08:58:50;9.77;;;6.20;;
6424;SDS011;12193;42.642;23.384;2023-04-06T09:01:25;7.60;;;5.63;;
6424;SDS011;12193;42.642;23.384;2023-04-06T09:03:56;8.20;;;5.70;;
6424;SDS011;12193;42.642;23.384;2023-04-06T09:06:27;8.23;;;5.80;;
6424;SDS011;12193;42.642;23.384;2023-04-06T09:08:57;11.27;;;6.40;;
6424;SDS011;12193;42.642;23.384;2023-04-06T09:11:26;9.73;;;6.57;;
6424;SDS011;12193;42.642;23.384;2023-04-06T09:13:56;10.90;;;7.07;;
6424;SDS011;12193;42.642;23.384;2023-04-06T09:16:28;9.30;;;6.57;;
6424;SDS011;12193;42.642;23.384;2023-04-06T09:19:08;9.73;;;6.57;;
6424;SDS011;12193;42.642;23.384;2023-04-06T09:21:38;13.90;;;6.93;;
6424;SDS011;12193;42.642;23.384;2023-04-06T09:24:08;10.23;;;6.97;;
6424;SDS011;12193;42.642;23.384;2023-04-06T09:26:44;10.43;;;7.57;;
6424;SDS011;12193;42.642;23.384;2023-04-06T09:29:24;9.27;;;6.30;;
6424;SDS011;12193;42.642;23.384;2023-04-06T09:32:04;10.60;;;7.27;;
6424;SDS011;12193;42.642;23.384;2023-04-06T09:34:36;11.20;;;6.73;;
6424;SDS011;12193;42.642;23.384;2023-04-06T09:37:12;11.70;;;7.20;;
6424;SDS011;12193;42.642;23.384;2023-04-06T09:39:42;12.60;;;7.77;;
6424;SDS011;12193;42.642;23.384;2023-04-06T09:42:12;10.13;;;6.37;;
6424;SDS011;12193;42.642;23.384;2023-04-06T09:44:52;9.80;;;6.43;;
6424;SDS011;12193;42.642;23.384;2023-04-06T09:47:25;9.83;;;6.53;;
6424;SDS011;12193;42.642;23.384;2023-04-06T09:49:56;10.73;;;6.20;;
6424;SDS011;12193;42.642;23.384;2023-04-06T09:52:30;9.13;;;6.77;;
6424;SDS011;12193;42.642;23.384;2023-04-06T09:55:02;11.43;;;7.03;;
6424;SDS011;12193;42.642;23.384;2023-04-06T09:57:36;9.07;;;6.50;;
6424;SDS011;12193;42.642;23.384;2023-04-06T10:00:11;10.60;;;6.20;;
6424;SDS011;12193;42.642;23.384;2023-04-06T10:02:50;13.63;;;7.37;;
6424;SDS011;12193;42.642;23.384;2023-04-06T10:05:28;10.07;;;6.70;;
6424;SDS011;12193;42.642;23.384;2023-04-06T10:08:04;9.37;;;6.20;;
6424;SDS011;12193;42.642;23.384;2023-04-06T10:10:37;21.00;;;6.80;;
6424;SDS011;12193;42.642;23.384;2023-04-06T10:13:07;11.97;;;6.10;;
6424;SDS011;12193;42.642;23.384;2023-04-06T10:15:40;13.47;;;7.00;;
6424;SDS011;12193;42.642;23.384;2023-04-06T10:18:13;11.93;;;6.90;;
6424;SDS011;12193;42.642;23.384;2023-04-06T10:20:47;9.40;;;6.67;;
6424;SDS011;12193;42.642;23.384;2023-04-06T10:23:22;11.63;;;6.23;;
6424;SDS011;12193;42.642;23.384;2023-04-06T10:25:56;9.70;;;6.97;;
6424;SDS011;12193;42.642;23.384;2023-04-06T10:28:30;11.20;;;6.80;;
6424;SDS011;12193;42.642;23.384;2023-04-06T10:31:02;10.97;;;6.17;;
6424;SDS011;12193;42.642;23.384;2023-04-06T10:33:36;7.53;;;5.50;;
6424;SDS011;12193;42.642;23.384;2023-04-06T10:36:09;11.37;;;6.40;;
6424;SDS011;12193;42.642;23.384;2023-04-06T10:38:40;10.60;;;6.87;;
6424;SDS011;12193;42.642;23.384;2023-04-06T10:41:11;9.47;;;6.83;;
6424;SDS011;12193;42.642;23.384;2023-04-06T10:43:41;9.97;;;6.57;;
6424;SDS011;12193;42.642;23.384;2023-04-06T10:46:11;12.00;;;6.50;;
6424;SDS011;12193;42.642;23.384;2023-04-06T10:48:43;13.20;;;7.50;;
6424;SDS011;12193;42.642;23.384;2023-04-06T10:51:14;9.03;;;6.37;;
6424;SDS011;12193;42.642;23.384;2023-04-06T10:53:45;12.33;;;6.70;;
6424;SDS011;12193;42.642;23.384;2023-04-06T10:56:16;9.43;;;6.77;;
6424;SDS011;12193;42.642;23.384;2023-04-06T10:58:52;10.50;;;7.10;;
6424;SDS011;12193;42.642;23.384;2023-04-06T11:01:22;12.97;;;7.53;;
6424;SDS011;12193;42.642;23.384;2023-04-06T11:03:56;10.23;;;6.83;;
6424;SDS011;12193;42.642;23.384;2023-04-06T11:06:27;11.67;;;7.07;;
6424;SDS011;12193;42.642;23.384;2023-04-06T11:08:58;9.50;;;7.10;;
6424;SDS011;12193;42.642;23.384;2023-04-06T11:11:28;12.13;;;7.03;;
6424;SDS011;12193;42.642;23.384;2023-04-06T11:13:57;8.50;;;6.57;;
6424;SDS011;12193;42.642;23.384;2023-04-06T11:16:29;10.97;;;7.57;;
6424;SDS011;12193;42.642;23.384;2023-04-06T11:19:03;13.80;;;7.40;;
6424;SDS011;12193;42.642;23.384;2023-04-06T11:21:36;12.23;;;7.63;;
6424;SDS011;12193;42.642;23.384;2023-04-06T11:24:07;11.50;;;8.00;;
6424;SDS011;12193;42.642;23.384;2023-04-06T11:26:41;11.40;;;7.07;;
6424;SDS011;12193;42.642;23.384;2023-04-06T11:29:13;10.77;;;7.57;;
6424;SDS011;12193;42.642;23.384;2023-04-06T11:31:46;11.70;;;7.27;;
6424;SDS011;12193;42.642;23.384;2023-04-06T11:34:19;15.27;;;8.13;;
6424;SDS011;12193;42.642;23.384;2023-04-06T11:36:53;13.07;;;7.60;;
6424;SDS011;12193;42.642;23.384;2023-04-06T11:39:26;12.73;;;7.80;;
6424;SDS011;12193;42.642;23.384;2023-04-06T11:41:58;12.13;;;7.40;;
6424;SDS011;12193;42.642;23.384;2023-04-06T11:44:32;10.60;;;7.47;;
6424;SDS011;12193;42.642;23.384;2023-04-06T11:47:05;13.43;;;7.43;;
6424;SDS011;12193;42.642;23.384;2023-04-06T11:49:39;14.30;;;7.47;;
6424;SDS011;12193;42.642;23.384;2023-04-06T11:52:16;13.60;;;7.03;;
6424;SDS011;12193;42.642;23.384;2023-04-06T11:54:47;11.77;;;7.57;;
6424;SDS011;12193;42.642;23.384;2023-04-06T11:57:18;11.20;;;7.70;;
6424;SDS011;12193;42.642;23.384;2023-04-06T11:59:49;11.63;;;7.43;;
6424;SDS011;12193;42.642;23.384;2023-04-06T12:02:18;12.13;;;7.77;;
6424;SDS011;12193;42.642;23.384;2023-04-06T12:04:50;12.40;;;8.10;;
6424;SDS011;12193;42.642;23.384;2023-04-06T12:07:20;13.13;;;8.43;;
6424;SDS011;12193;42.642;23.384;2023-04-06T12:09:49;12.90;;;7.50;;
6424;SDS011;12193;42.642;23.384;2023-04-06T12:12:19;10.90;;;6.77;;
6424;SDS011;12193;42.642;23.384;2023-04-06T12:14:48;12.47;;;7.70;;
6424;SDS011;12193;42.642;23.384;2023-04-06T12:17:17;12.03;;;8.17;;
6424;SDS011;12193;42.642;23.384;2023-04-06T12:19:47;13.47;;;7.80;;
6424;SDS011;12193;42.642;23.384;2023-04-06T12:22:19;11.03;;;6.63;;
6424;SDS011;12193;42.642;23.384;2023-04-06T12:24:48;12.20;;;7.67;;
6424;SDS011;12193;42.642;23.384;2023-04-06T12:27:18;13.97;;;8.13;;
6424;SDS011;12193;42.642;23.384;2023-04-06T12:29:47;13.77;;;8.40;;
6424;SDS011;12193;42.642;23.384;2023-04-06T12:32:17;10.83;;;7.63;;
6424;SDS011;12193;42.642;23.384;2023-04-06T12:34:47;12.87;;;7.90;;
6424;SDS011;12193;42.642;23.384;2023-04-06T12:37:19;11.50;;;7.70;;
6424;SDS011;12193;42.642;23.384;2023-04-06T12:39:49;11.77;;;7.47;;
6424;SDS011;12193;42.642;23.384;2023-04-06T12:42:18;15.10;;;8.10;;
6424;SDS011;12193;42.642;23.384;2023-04-06T12:44:48;11.77;;;7.63;;
6424;SDS011;12193;42.642;23.384;2023-04-06T12:47:17;13.73;;;7.53;;
6424;SDS011;12193;42.642;23.384;2023-04-06T12:49:47;10.97;;;7.10;;
6424;SDS011;12193;42.642;23.384;2023-04-06T12:52:19;10.77;;;6.93;;
6424;SDS011;12193;42.642;23.384;2023-04-06T12:54:49;13.70;;;7.90;;
6424;SDS011;12193;42.642;23.384;2023-04-06T12:57:19;11.00;;;7.10;;
6424;SDS011;12193;42.642;23.384;2023-04-06T12:59:48;9.07;;;6.50;;
6424;SDS011;12193;42.642;23.384;2023-04-06T13:02:18;12.83;;;7.60;;
6424;SDS011;12193;42.642;23.384;2023-04-06T13:04:51;12.33;;;7.93;;
6424;SDS011;12193;42.642;23.384;2023-04-06T13:07:20;10.17;;;7.10;;
6424;SDS011;12193;42.642;23.384;2023-04-06T13:09:51;13.20;;;7.90;;
6424;SDS011;12193;42.642;23.384;2023-04-06T13:12:20;12.13;;;7.90;;
6424;SDS011;12193;42.642;23.384;2023-04-06T13:14:50;12.80;;;7.73;;
6424;SDS011;12193;42.642;23.384;2023-04-06T13:17:19;12.83;;;7.70;;
6424;SDS011;12193;42.642;23.384;2023-04-06T13:19:52;17.83;;;8.70;;
6424;SDS011;12193;42.642;23.384;2023-04-06T13:22:21;13.43;;;8.27;;
6424;SDS011;12193;42.642;23.384;2023-04-06T13:24:51;9.90;;;7.20;;
6424;SDS011;12193;42.642;23.384;2023-04-06T13:27:20;12.33;;;7.60;;
6424;SDS011;12193;42.642;23.384;2023-04-06T13:29:50;12.33;;;7.60;;
6424;SDS011;12193;42.642;23.384;2023-04-06T13:32:19;13.27;;;7.33;;
6424;SDS011;12193;42.642;23.384;2023-04-06T13:34:49;14.03;;;7.70;;
6424;SDS011;12193;42.642;23.384;2023-04-06T13:37:23;14.17;;;8.10;;
6424;SDS011;12193;42.642;23.384;2023-04-06T13:39:52;13.77;;;8.10;;
6424;SDS011;12193;42.642;23.384;2023-04-06T13:42:21;12.57;;;8.57;;
6424;SDS011;12193;42.642;23.384;2023-04-06T13:44:51;13.13;;;7.83;;
6424;SDS011;12193;42.642;23.384;2023-04-06T13:47:20;12.50;;;7.77;;
6424;SDS011;12193;42.642;23.384;2023-04-06T13:49:52;15.63;;;8.20;;
6424;SDS011;12193;42.642;23.384;2023-04-06T13:52:22;12.37;;;8.13;;
6424;SDS011;12193;42.642;23.384;2023-04-06T13:54:52;12.70;;;7.63;;
6424;SDS011;12193;42.642;23.384;2023-04-06T13:57:21;14.03;;;7.50;;
6424;SDS011;12193;42.642;23.384;2023-04-06T13:59:51;11.43;;;7.77;;
6424;SDS011;12193;42.642;23.384;2023-04-06T14:02:21;14.13;;;7.67;;
6424;SDS011;12193;42.642;23.384;2023-04-06T14:04:55;11.17;;;7.20;;
6424;SDS011;12193;42.642;23.384;2023-04-06T14:07:24;12.73;;;7.00;;
6424;SDS011;12193;42.642;23.384;2023-04-06T14:09:54;9.23;;;6.93;;
6424;SDS011;12193;42.642;23.384;2023-04-06T14:12:23;14.33;;;6.97;;
6424;SDS011;12193;42.642;23.384;2023-04-06T14:14:53;11.33;;;6.47;;
6424;SDS011;12193;42.642;23.384;2023-04-06T14:17:22;10.50;;;6.73;;
6424;SDS011;12193;42.642;23.384;2023-04-06T14:19:51;11.90;;;7.40;;
6424;SDS011;12193;42.642;23.384;2023-04-06T14:22:23;10.93;;;6.87;;
6424;SDS011;12193;42.642;23.384;2023-04-06T14:24:53;13.07;;;7.33;;
6424;SDS011;12193;42.642;23.384;2023-04-06T14:27:22;9.90;;;7.10;;
6424;SDS011;12193;42.642;23.384;2023-04-06T14:29:52;10.27;;;7.00;;
6424;SDS011;12193;42.642;23.384;2023-04-06T14:32:22;14.53;;;7.70;;
6424;SDS011;12193;42.642;23.384;2023-04-06T14:34:52;11.97;;;7.07;;
6424;SDS011;12193;42.642;23.384;2023-04-06T14:37:24;11.13;;;7.03;;
6424;SDS011;12193;42.642;23.384;2023-04-06T14:39:53;11.57;;;7.27;;
6424;SDS011;12193;42.642;23.384;2023-04-06T14:42:23;12.13;;;7.33;;
6424;SDS011;12193;42.642;23.384;2023-04-06T14:44:52;12.33;;;6.53;;
6424;SDS011;12193;42.642;23.384;2023-04-06T14:47:21;12.17;;;7.50;;
6424;SDS011;12193;42.642;23.384;2023-04-06T14:49:51;13.10;;;7.10;;
6424;SDS011;12193;42.642;23.384;2023-04-06T14:52:20;10.33;;;7.63;;
6424;SDS011;12193;42.642;23.384;2023-04-06T14:54:53;11.80;;;7.67;;
6424;SDS011;12193;42.642;23.384;2023-04-06T14:57:22;12.73;;;8.43;;
6424;SDS011;12193;42.642;23.384;2023-04-06T14:59:52;15.63;;;7.90;;
6424;SDS011;12193;42.642;23.384;2023-04-06T15:02:23;13.03;;;8.33;;
6424;SDS011;12193;42.642;23.384;2023-04-06T15:04:53;13.10;;;8.10;;
6424;SDS011;12193;42.642;23.384;2023-04-06T15:07:24;11.73;;;7.93;;
6424;SDS011;12193;42.642;23.384;2023-04-06T15:09:54;16.00;;;8.70;;
6424;SDS011;12193;42.642;23.384;2023-04-06T15:12:23;15.17;;;8.70;;
6424;SDS011;12193;42.642;23.384;2023-04-06T15:14:52;15.37;;;8.83;;
6424;SDS011;12193;42.642;23.384;2023-04-06T15:17:22;16.60;;;9.40;;
6424;SDS011;12193;42.642;23.384;2023-04-06T15:19:52;18.80;;;10.17;;
6424;SDS011;12193;42.642;23.384;2023-04-06T15:22:21;15.53;;;9.70;;
6424;SDS011;12193;42.642;23.384;2023-04-06T15:24:53;17.23;;;9.83;;
6424;SDS011;12193;42.642;23.384;2023-04-06T15:27:23;17.50;;;9.57;;
6424;SDS011;12193;42.642;23.384;2023-04-06T15:29:52;15.23;;;9.73;;
6424;SDS011;12193;42.642;23.384;2023-04-06T15:32:24;18.97;;;9.97;;
6424;SDS011;12193;42.642;23.384;2023-04-06T15:34:54;15.70;;;9.17;;
6424;SDS011;12193;42.642;23.384;2023-04-06T15:37:24;17.80;;;9.27;;
6424;SDS011;12193;42.642;23.384;2023-04-06T15:39:56;16.53;;;9.57;;
6424;SDS011;12193;42.642;23.384;2023-04-06T15:42:27;13.57;;;9.40;;
6424;SDS011;12193;42.642;23.384;2023-04-06T15:44:56;17.90;;;9.80;;
6424;SDS011;12193;42.642;23.384;2023-04-06T15:47:26;16.00;;;10.00;;
6424;SDS011;12193;42.642;23.384;2023-04-06T15:49:56;15.37;;;9.33;;
6424;SDS011;12193;42.642;23.384;2023-04-06T15:52:25;15.23;;;9.13;;
6424;SDS011;12193;42.642;23.384;2023-04-06T15:54:57;16.73;;;9.60;;
6424;SDS011;12193;42.642;23.384;2023-04-06T15:57:26;17.20;;;10.80;;
6424;SDS011;12193;42.642;23.384;2023-04-06T15:59:56;17.00;;;10.30;;
6424;SDS011;12193;42.642;23.384;2023-04-06T16:02:25;24.80;;;10.50;;
6424;SDS011;12193;42.642;23.384;2023-04-06T16:04:55;19.50;;;10.77;;
6424;SDS011;12193;42.642;23.384;2023-04-06T16:07:27;17.53;;;10.27;;
6424;SDS011;12193;42.642;23.384;2023-04-06T16:09:59;19.37;;;10.40;;
6424;SDS011;12193;42.642;23.384;2023-04-06T16:12:29;19.07;;;10.83;;
6424;SDS011;12193;42.642;23.384;2023-04-06T16:14:59;16.70;;;10.50;;
6424;SDS011;12193;42.642;23.384;2023-04-06T16:17:28;19.97;;;10.97;;
6424;SDS011;12193;42.642;23.384;2023-04-06T16:19:58;18.03;;;10.87;;
6424;SDS011;12193;42.642;23.384;2023-04-06T16:22:28;17.57;;;9.83;;
6424;SDS011;12193;42.642;23.384;2023-04-06T16:24:59;21.83;;;10.53;;
6424;SDS011;12193;42.642;23.384;2023-04-06T16:27:29;14.63;;;9.50;;
6424;SDS011;12193;42.642;23.384;2023-04-06T16:29:58;15.03;;;9.63;;
6424;SDS011;12193;42.642;23.384;2023-04-06T16:32:28;18.43;;;9.70;;
6424;SDS011;12193;42.642;23.384;2023-04-06T16:34:57;21.47;;;10.67;;
6424;SDS011;12193;42.642;23.384;2023-04-06T16:37:26;16.87;;;10.60;;
6424;SDS011;12193;42.642;23.384;2023-04-06T16:39:56;22.30;;;10.80;;
6424;SDS011;12193;42.642;23.384;2023-04-06T16:42:28;18.50;;;10.30;;
6424;SDS011;12193;42.642;23.384;2023-04-06T16:44:58;16.97;;;9.50;;
6424;SDS011;12193;42.642;23.384;2023-04-06T16:47:27;17.33;;;9.60;;
6424;SDS011;12193;42.642;23.384;2023-04-06T16:49:57;16.27;;;9.37;;
6424;SDS011;12193;42.642;23.384;2023-04-06T16:52:26;16.67;;;9.70;;
6424;SDS011;12193;42.642;23.384;2023-04-06T16:54:55;16.53;;;9.93;;
6424;SDS011;12193;42.642;23.384;2023-04-06T16:57:27;15.27;;;9.93;;
6424;SDS011;12193;42.642;23.384;2023-04-06T16:59:58;17.30;;;10.17;;
6424;SDS011;12193;42.642;23.384;2023-04-06T17:02:30;18.27;;;11.07;;
6424;SDS011;12193;42.642;23.384;2023-04-06T17:05:01;16.93;;;10.13;;
6424;SDS011;12193;42.642;23.384;2023-04-06T17:07:31;16.60;;;10.40;;
6424;SDS011;12193;42.642;23.384;2023-04-06T17:10:01;19.10;;;10.57;;
6424;SDS011;12193;42.642;23.384;2023-04-06T17:12:34;18.33;;;10.90;;
6424;SDS011;12193;42.642;23.384;2023-04-06T17:15:04;16.50;;;10.43;;
6424;SDS011;12193;42.642;23.384;2023-04-06T17:17:33;18.07;;;10.00;;
6424;SDS011;12193;42.642;23.384;2023-04-06T17:20:04;18.43;;;10.23;;
6424;SDS011;12193;42.642;23.384;2023-04-06T17:22:34;17.07;;;9.73;;
6424;SDS011;12193;42.642;23.384;2023-04-06T17:25:04;14.67;;;9.47;;
6424;SDS011;12193;42.642;23.384;2023-04-06T17:27:37;17.63;;;9.07;;
6424;SDS011;12193;42.642;23.384;2023-04-06T17:30:08;17.87;;;8.77;;
6424;SDS011;12193;42.642;23.384;2023-04-06T17:32:37;15.33;;;9.33;;
6424;SDS011;12193;42.642;23.384;2023-04-06T17:35:08;15.73;;;9.40;;
6424;SDS011;12193;42.642;23.384;2023-04-06T17:37:38;15.00;;;9.40;;
6424;SDS011;12193;42.642;23.384;2023-04-06T17:40:10;16.37;;;9.57;;
6424;SDS011;12193;42.642;23.384;2023-04-06T17:42:43;15.43;;;9.50;;
6424;SDS011;12193;42.642;23.384;2023-04-06T17:45:12;15.23;;;9.10;;
6424;SDS011;12193;42.642;23.384;2023-04-06T17:47:41;16.13;;;9.30;;
6424;SDS011;12193;42.642;23.384;2023-04-06T17:50:11;19.33;;;10.67;;
6424;SDS011;12193;42.642;23.384;2023-04-06T17:52:40;15.77;;;9.20;;
6424;SDS011;12193;42.642;23.384;2023-04-06T17:55:10;17.20;;;10.33;;